Time;durP1;ratioP1;P1;durP2;ratioP2;P2;SDS_P1;SDS_P2;PMS_P1;PMS_P2;Temp;Humidity;BMP_temperature;BMP_pressure;BME280_temperature;BME280_humidity;BME280_pressure;Samples;Min_cycle;Max_cycle;Signal;HPM_P1;HPM_P2
2022/08/14 00:04:02;;;;;;;;;21.00;19.00;;;;;;;;6488125;46;8925;-61
2022/08/14 00:10:26;;;;;;;;;24.00;22.25;;;;;;;;6488620;39;9034;-62
2022/08/14 00:16:49;;;;;;;;;22.75;19.75;;;;;;;;6489144;31;8973;-62
2022/08/14 00:22:58;;;;;;;;;20.25;17.50;;;;;;;;6488314;39;9340;-62
2022/08/14 00:29:15;;;;;;;;;14.75;14.75;;;;;;;;6488050;31;9561;-61
2022/08/14 00:35:18;;;;;;;;;18.00;15.75;;;;;;;;6488524;39;8972;-62
2022/08/14 00:41:20;;;;;;;;;19.00;17.00;;;;;;;;6488574;31;8881;-61
2022/08/14 00:47:24;;;;;;;;;17.50;17.50;;;;;;;;6487820;39;9673;-62
2022/08/14 00:53:31;;;;;;;;;22.75;18.25;;;;;;;;6488361;31;8950;-61
2022/08/14 00:59:34;;;;;;;;;18.00;18.00;;;;;;;;6488262;39;8915;-66
2022/08/14 01:05:44;;;;;;;;;18.75;18.75;;;;;;;;6488517;31;9598;-62
2022/08/14 01:11:53;;;;;;;;;21.25;20.25;;;;;;;;6487714;39;8872;-61
2022/08/14 01:24:30;;;;;;;;;15.25;15.25;;;;;;;;6487702;39;8908;-60
2022/08/14 01:30:37;;;;;;;;;20.75;17.75;;;;;;;;6487262;46;9020;-62
2022/08/14 01:36:41;;;;;;;;;14.25;14.25;;;;;;;;6487077;39;8967;-61
2022/08/14 01:42:45;;;;;;;;;22.25;18.25;;;;;;;;6487281;39;9549;-61
2022/08/14 01:48:50;;;;;;;;;19.25;17.75;;;;;;;;6487647;46;8904;-61
2022/08/14 01:54:54;;;;;;;;;18.75;17.25;;;;;;;;6486304;46;9056;-62
2022/08/14 02:00:59;;;;;;;;;15.00;14.00;;;;;;;;6486786;39;8845;-61
2022/08/14 02:07:03;;;;;;;;;26.25;21.50;;;;;;;;6487588;39;8980;-62
2022/08/14 02:13:14;;;;;;;;;19.75;19.25;;;;;;;;6486918;46;8870;-61
2022/08/14 02:19:24;;;;;;;;;19.00;16.00;;;;;;;;6487819;31;9049;-62
2022/08/14 02:25:29;;;;;;;;;14.75;12.75;;;;;;;;6486960;39;9017;-59
2022/08/14 02:31:36;;;;;;;;;19.25;15.75;;;;;;;;6487387;39;8945;-62
2022/08/14 02:37:53;;;;;;;;;19.00;18.00;;;;;;;;6487109;39;8897;-62
2022/08/14 02:43:56;;;;;;;;;18.75;15.50;;;;;;;;6486827;47;8974;-62
2022/08/14 02:50:03;;;;;;;;;19.25;19.25;;;;;;;;6486263;47;8964;-61
2022/08/14 02:56:14;;;;;;;;;15.25;15.25;;;;;;;;6485896;47;8895;-61
2022/08/14 03:02:36;;;;;;;;;19.50;17.75;;;;;;;;6486779;31;8849;-62
2022/08/14 03:09:00;;;;;;;;;23.00;19.25;;;;;;;;6486820;36;8906;-62
2022/08/14 03:15:07;;;;;;;;;21.67;20.00;;;;;;;;6488418;39;8873;-63
2022/08/14 03:21:19;;;;;;;;;24.33;22.33;;;;;;;;6487460;39;8924;-60
2022/08/14 03:27:30;;;;;;;;;22.00;19.00;;;;;;;;6488703;31;8960;-62
2022/08/14 03:33:50;;;;;;;;;22.25;20.75;;;;;;;;6488250;31;9080;-61
2022/08/14 03:39:56;;;;;;;;;23.75;20.75;;;;;;;;6489333;31;8918;-61
2022/08/14 03:45:59;;;;;;;;;23.75;21.50;;;;;;;;6488030;46;8921;-62
2022/08/14 03:52:04;;;;;;;;;16.75;16.75;;;;;;;;6489001;31;8924;-62
2022/08/14 03:58:44;;;;;;;;;20.50;18.50;;;;;;;;6488601;31;8882;-61
2022/08/14 04:04:52;;;;;;;;;22.75;20.00;;;;;;;;6487629;39;8885;-62
2022/08/14 04:10:58;;;;;;;;;17.25;16.75;;;;;;;;6487792;39;8930;-62
2022/08/14 04:17:03;;;;;;;;;21.75;20.25;;;;;;;;6487901;31;8939;-61
2022/08/14 04:23:12;;;;;;;;;23.00;20.75;;;;;;;;6487645;39;8897;-62
2022/08/14 04:29:26;;;;;;;;;17.50;17.25;;;;;;;;6487710;46;8984;-61
